Time;durP1;ratioP1;P1;durP2;ratioP2;P2;SDS_P1;SDS_P2;PMS_P1;PMS_P2;Temp;Humidity;BMP_temperature;BMP_pressure;BME280_temperature;BME280_humidity;BME280_pressure;Samples;Min_cycle;Max_cycle;Signal;HPM_P1;HPM_P2
2022/04/27 00:00:11;;;;;;;35.50;22.30;;;;;;;19.67;42.08;99832.66;342794;28;1787;-75
2022/04/27 00:00:24;;;;;;;34.40;21.58;;;;;;;19.70;42.37;99835.09;343640;28;1898;-76
2022/04/27 00:00:42;;;;;;;32.78;21.52;;;;;;;19.70;42.19;99833.28;343433;28;4283;-78
2022/04/27 00:00:55;;;;;;;32.13;21.55;;;;;;;19.73;41.98;99833.09;343621;28;1108;-75
2022/04/27 00:01:07;;;;;;;31.90;21.13;;;;;;;19.75;42.20;99831.22;342760;28;2225;-74
2022/04/27 00:01:21;;;;;;;33.58;21.63;;;;;;;19.70;42.02;99837.72;343288;28;1769;-74
2022/04/27 00:01:33;;;;;;;34.17;21.98;;;;;;;19.68;41.99;99834.31;343422;28;1338;-74
2022/04/27 00:01:46;;;;;;;32.97;21.67;;;;;;;19.69;42.04;99826.31;342254;28;1692;-74
2022/04/27 00:01:58;;;;;;;33.33;21.17;;;;;;;19.66;42.08;99837.09;342295;28;1056;-74
2022/04/27 00:02:10;;;;;;;33.08;20.88;;;;;;;19.68;41.73;99831.69;343896;28;1935;-74
2022/04/27 00:02:23;;;;;;;32.60;21.08;;;;;;;19.68;41.90;99831.69;344242;28;1729;-74
2022/04/27 00:02:35;;;;;;;32.45;21.25;;;;;;;19.71;41.95;99834.16;344519;28;1216;-77
2022/04/27 00:02:47;;;;;;;32.17;20.80;;;;;;;19.71;42.02;99834.16;344111;28;1678;-74
2022/04/27 00:03:00;;;;;;;34.90;21.00;;;;;;;19.69;42.14;99836.03;344680;28;1963;-76
2022/04/27 00:03:12;;;;;;;35.90;21.27;;;;;;;19.73;41.99;99837.53;343568;28;1230;-74
2022/04/27 00:03:24;;;;;;;35.70;21.73;;;;;;;19.50;42.39;99841.72;343618;28;1771;-77
2022/04/27 00:03:36;;;;;;;35.88;22.35;;;;;;;19.59;42.17;99840.25;343323;28;1077;-74
2022/04/27 00:03:49;;;;;;;35.10;22.00;;;;;;;19.55;42.19;99835.16;343620;28;1214;-74
2022/04/27 00:04:01;;;;;;;35.28;21.60;;;;;;;19.56;42.31;99831.59;343575;28;1353;-74
2022/04/27 00:04:13;;;;;;;34.67;21.15;;;;;;;19.59;42.33;99834.97;344304;28;1960;-74
2022/04/27 00:04:25;;;;;;;33.60;21.13;;;;;;;19.61;42.25;99827.78;344026;28;1923;-75
2022/04/27 00:04:37;;;;;;;34.72;21.98;;;;;;;19.64;42.19;99830.22;343466;28;1818;-75
2022/04/27 00:04:50;;;;;;;35.55;21.90;;;;;;;19.68;42.40;99831.69;343490;28;1735;-75
2022/04/27 00:05:03;;;;;;;35.65;21.48;;;;;;;19.70;42.25;99832.47;343321;28;1892;-74
2022/04/27 00:05:15;;;;;;;34.20;21.45;;;;;;;19.74;42.07;99840.09;344595;28;1772;-74
2022/04/27 00:05:27;;;;;;;33.38;21.08;;;;;;;19.78;42.04;99827.53;344295;28;1114;-74
2022/04/27 00:05:40;;;;;;;33.00;20.92;;;;;;;19.83;42.05;99835.97;344686;28;1155;-74
2022/04/27 00:05:52;;;;;;;32.47;20.48;;;;;;;19.78;41.91;99830.19;344807;28;1083;-75
2022/04/27 00:06:04;;;;;;;31.15;20.17;;;;;;;19.81;42.08;99834.38;344406;28;1882;-75
2022/04/27 00:06:16;;;;;;;32.10;21.08;;;;;;;19.78;42.10;99830.19;344604;28;2159;-75
2022/04/27 00:06:28;;;;;;;32.45;21.33;;;;;;;19.80;41.92;99830.03;343112;28;1206;-75
2022/04/27 00:06:40;;;;;;;31.77;20.67;;;;;;;19.82;41.94;99831.66;344463;28;1257;-75
2022/04/27 00:06:52;;;;;;;31.90;20.48;;;;;;;19.84;41.88;99828.88;344649;28;1039;-75
2022/04/27 00:07:06;;;;;;;32.90;21.15;;;;;;;19.80;41.99;99830.91;342731;28;1698;-75
2022/04/27 00:07:18;;;;;;;32.45;21.27;;;;;;;19.76;42.06;99832.06;341169;28;1774;-75
2022/04/27 00:07:30;;;;;;;33.72;21.65;;;;;;;19.66;42.17;99836.22;341378;28;1324;-75
2022/04/27 00:07:42;;;;;;;33.47;21.55;;;;;;;19.71;42.14;99834.16;342143;28;1100;-75
2022/04/27 00:07:54;;;;;;;34.42;21.35;;;;;;;19.75;41.91;99835.66;342040;28;1334;-75
2022/04/27 00:08:07;;;;;;;34.03;20.75;;;;;;;19.75;41.98;99835.66;341441;28;2545;-75
2022/04/27 00:08:19;;;;;;;33.08;20.65;;;;;;;19.68;41.99;99835.19;340896;28;2349;-74
2022/04/27 00:08:31;;;;;;;33.92;21.25;;;;;;;19.68;42.08;99835.19;342022;28;1474;-75
2022/04/27 00:08:43;;;;;;;35.53;23.17;;;;;;;19.61;42.25;99830.44;342068;28;1083;-75
2022/04/27 00:08:55;;;;;;;35.90;23.17;;;;;;;19.59;42.23;99834.97;341779;28;987;-76
2022/04/27 00:09:07;;;;;;;34.83;21.70;;;;;;;19.56;42.31;99834.22;342352;28;1948;-75
2022/04/27 00:09:19;;;;;;;34.25;21.60;;;;;;;19.57;42.33;99832.41;343385;28;1994;-76
2022/04/27 00:09:31;;;;;;;33.35;21.50;;;;;;;19.62;42.27;99837.38;342983;28;1205;-75
2022/04/27 00:09:43;;;;;;;33.80;21.58;;;;;;;19.69;42.14;99833.38;342205;28;1084;-76
2022/04/27 00:09:55;;;;;;;32.63;21.15;;;;;;;19.75;42.06;99835.66;342129;28;1096;-75
2022/04/27 00:10:07;;;;;;;32.30;20.85;;;;;;;19.69;42.21;99833.38;341632;28;1874;-75
2022/04/27 00:10:19;;;;;;;33.20;20.95;;;;;;;19.72;42.15;99834.06;339785;29;1791;-75
2022/04/27 00:10:32;;;;;;;33.88;21.20;;;;;;;19.75;41.99;99833.00;340425;29;1379;-75
2022/04/27 00:10:44;;;;;;;33.50;21.30;;;;;;;19.79;41.96;99833.66;341189;28;1492;-78
2022/04/27 00:10:56;;;;;;;34.10;21.65;;;;;;;19.82;41.90;99831.66;340551;28;1849;-78
2022/04/27 00:11:08;;;;;;;34.38;21.63;;;;;;;19.81;41.87;99835.22;342004;28;1144;-76
2022/04/27 00:11:20;;;;;;;34.50;21.75;;;;;;;19.76;42.11;99821.53;342256;28;1051;-77
2022/04/27 00:11:32;;;;;;;35.97;22.40;;;;;;;19.77;41.97;99836.38;342442;28;1337;-74
2022/04/27 00:11:44;;;;;;;38.42;23.33;;;;;;;19.49;42.45;99840.84;342575;28;1205;-74
2022/04/27 00:12:00;;;;;;;36.22;22.95;;;;;;;19.62;42.38;99829.47;341526;28;1711;-74
2022/04/27 00:12:12;;;;;;;35.85;22.33;;;;;;;19.71;42.06;99828.88;341469;28;1762;-74
2022/04/27 00:12:27;;;;;;;36.40;22.20;;;;;;;19.80;42.02;99837.97;342679;28;1113;-75
2022/04/27 00:12:39;;;;;;;35.13;21.90;;;;;;;19.82;41.93;99826.38;342252;28;1100;-75
2022/04/27 00:12:51;;;;;;;34.28;21.33;;;;;;;19.87;41.87;99833.97;341856;28;1850;-77
2022/04/27 00:13:03;;;;;;;34.20;21.00;;;;;;;19.94;41.86;99828.16;341927;28;1726;-75
2022/04/27 00:13:16;;;;;;;32.38;20.50;;;;;;;20.02;41.68;99832.06;343573;28;1050;-72
2022/04/27 00:13:28;;;;;;;32.10;20.65;;;;;;;20.08;41.48;99831.63;343299;28;1238;-72
2022/04/27 00:13:40;;;;;;;32.10;20.73;;;;;;;20.13;41.45;99834.81;343553;28;1218;-72
2022/04/27 00:13:52;;;;;;;31.63;20.45;;;;;;;20.17;41.47;99825.72;343252;28;1059;-72
2022/04/27 00:14:04;;;;;;;33.03;20.88;;;;;;;20.20;41.32;99828.13;343250;28;1805;-72
2022/04/27 00:14:16;;;;;;;33.03;21.17;;;;;;;20.19;41.33;99833.53;344877;28;1943;-72
2022/04/27 00:14:29;;;;;;;33.05;21.02;;;;;;;20.14;41.24;99831.22;343939;28;1598;-72
2022/04/27 00:14:42;;;;;;;33.00;20.75;;;;;;;20.14;41.37;99833.84;343439;28;1113;-72
2022/04/27 00:14:54;;;;;;;33.95;21.08;;;;;;;20.12;41.52;99835.75;343267;28;1068;-72
2022/04/27 00:15:07;;;;;;;32.15;20.60;;;;;;;20.12;41.30;99833.97;343102;28;1681;-72
2022/04/27 00:15:23;;;;;;;32.40;21.05;;;;;;;20.01;41.47;99836.50;343125;28;1878;-72
2022/04/27 00:15:35;;;;;;;32.08;20.70;;;;;;;20.04;41.45;99830.16;342835;28;1817;-72
2022/04/27 00:15:47;;;;;;;31.80;20.33;;;;;;;20.02;41.69;99832.06;343272;28;1108;-72
2022/04/27 00:15:59;;;;;;;31.02;20.15;;;;;;;19.99;41.59;99832.28;343425;28;1099;-72
2022/04/27 00:16:11;;;;;;;32.38;20.83;;;;;;;19.96;41.52;99833.34;342559;28;1900;-72
2022/04/27 00:16:23;;;;;;;33.20;20.98;;;;;;;19.98;41.60;99830.59;343083;28;2005;-72
2022/04/27 00:16:35;;;;;;;33.40;21.02;;;;;;;19.97;41.39;99839.47;342188;28;1084;-72
2022/04/27 00:16:48;;;;;;;33.20;21.30;;;;;;;20.01;41.57;99831.22;341923;28;1121;-72
2022/04/27 00:17:00;;;;;;;33.40;21.58;;;;;;;20.02;41.51;99824.16;342154;28;1196;-72
2022/04/27 00:17:13;;;;;;;32.65;21.48;;;;;;;20.01;41.50;99825.09;341365;28;1913;-75
2022/04/27 00:17:25;;;;;;;33.85;21.75;;;;;;;19.94;41.51;99828.16;342796;28;2000;-76
2022/04/27 00:17:37;;;;;;;33.20;21.33;;;;;;;19.95;41.62;99821.09;342633;28;1805;-74
2022/04/27 00:17:49;;;;;;;33.42;21.33;;;;;;;19.95;41.63;99824.56;343467;28;1059;-75
2022/04/27 00:18:01;;;;;;;34.10;21.60;;;;;;;20.02;41.44;99832.06;343242;28;1056;-75
2022/04/27 00:18:13;;;;;;;34.17;21.58;;;;;;;20.01;41.36;99823.31;342681;28;1948;-75
2022/04/27 00:18:25;;;;;;;32.83;21.52;;;;;;;20.12;41.28;99833.09;342064;28;1954;-75
2022/04/27 00:18:37;;;;;;;31.73;20.80;;;;;;;20.14;41.30;99825.94;342501;28;1065;-75
2022/04/27 00:18:48;;;;;;;31.50;20.13;;;;;;;20.01;41.25;99830.38;343206;28;1048;-75
2022/04/27 00:19:01;;;;;;;34.08;21.02;;;;;;;19.95;41.61;99826.38;343263;28;1057;-75
2022/04/27 00:19:13;;;;;;;34.80;21.98;;;;;;;19.94;41.63;99828.16;341494;28;1795;-75
2022/04/27 00:19:25;;;;;;;33.72;21.88;;;;;;;19.96;41.70;99828.06;342058;28;1376;-75
2022/04/27 00:19:37;;;;;;;32.53;21.20;;;;;;;19.99;41.58;99832.28;342477;28;3996;-72
2022/04/27 00:19:50;;;;;;;33.38;21.02;;;;;;;19.96;41.67;99830.72;342679;28;2906;-72
2022/04/27 00:20:02;;;;;;;32.92;20.67;;;;;;;19.96;41.26;99833.34;342120;28;1704;-72
2022/04/27 00:20:14;;;;;;;32.80;21.33;;;;;;;19.94;41.64;99825.53;342968;28;1630;-74
2022/04/27 00:20:26;;;;;;;31.73;21.05;;;;;;;19.95;41.70;99827.22;342649;28;2327;-74
2022/04/27 00:20:38;;;;;;;30.65;20.77;;;;;;;20.01;41.54;99827.75;344193;28;1055;-74
2022/04/27 00:20:50;;;;;;;31.33;20.80;;;;;;;20.03;41.57;99828.47;343554;28;1083;-74
2022/04/27 00:21:02;;;;;;;30.80;20.33;;;;;;;19.98;41.71;99835.84;343518;28;1264;-74
2022/04/27 00:21:14;;;;;;;31.67;20.70;;;;;;;20.02;41.73;99832.06;343363;28;1457;-72
2022/04/27 00:21:27;;;;;;;32.67;20.95;;;;;;;20.08;41.49;99829.00;343396;28;1206;-72
2022/04/27 00:21:39;;;;;;;31.67;20.63;;;;;;;20.10;41.48;99824.44;343630;28;1100;-72
2022/04/27 00:21:51;;;;;;;30.73;20.23;;;;;;;20.12;41.57;99833.09;343592;28;1190;-72
2022/04/27 00:22:03;;;;;;;32.30;20.90;;;;;;;19.98;41.69;99833.22;342588;28;1742;-72
2022/04/27 00:22:15;;;;;;;33.78;21.65;;;;;;;20.00;41.83;99828.69;343166;28;1499;-74
2022/04/27 00:22:27;;;;;;;34.83;22.05;;;;;;;20.00;41.70;99828.69;342872;28;1204;-73
2022/04/27 00:22:39;;;;;;;32.53;21.23;;;;;;;20.09;41.40;99833.34;343579;28;1642;-74
2022/04/27 00:22:51;;;;;;;30.73;20.75;;;;;;;20.08;41.50;99829.88;342972;28;1803;-74
2022/04/27 00:23:03;;;;;;;30.55;20.38;;;;;;;20.12;41.47;99830.47;343267;28;1653;-72
2022/04/27 00:23:15;;;;;;;32.63;20.75;;;;;;;20.10;41.45;99835.00;343636;28;1075;-72
2022/04/27 00:23:29;;;;;;;33.72;20.55;;;;;;;20.09;41.56;99833.34;343692;28;2037;-72
2022/04/27 00:23:41;;;;;;;34.33;21.13;;;;;;;20.18;41.46;99827.41;343734;28;1032;-72
2022/04/27 00:23:54;;;;;;;35.45;21.95;;;;;;;20.19;41.25;99833.53;343646;28;1059;-72
2022/04/27 00:24:06;;;;;;;35.05;21.80;;;;;;;20.10;41.41;99830.59;343510;28;1903;-72
2022/04/27 00:24:18;;;;;;;34.15;21.42;;;;;;;20.10;41.34;99832.38;344319;28;1649;-75
2022/04/27 00:24:30;;;;;;;32.67;21.20;;;;;;;20.11;41.32;99832.28;344605;28;1238;-75
2022/04/27 00:24:42;;;;;;;34.40;21.45;;;;;;;20.15;41.27;99832.91;344739;28;1237;-75
2022/04/27 00:25:00;;;;;;;35.22;21.95;;;;;;;20.14;41.29;99829.44;344559;28;1152;-75
2022/04/27 00:25:12;;;;;;;35.13;21.38;;;;;;;20.15;41.28;99832.91;344639;28;1856;-72
2022/04/27 00:25:24;;;;;;;34.60;20.98;;;;;;;19.99;41.56;99827.00;344703;28;1827;-72
2022/04/27 00:25:36;;;;;;;34.80;21.15;;;;;;;20.03;41.50;99829.31;342192;28;1318;-72
2022/04/27 00:25:48;;;;;;;34.47;21.48;;;;;;;20.02;41.65;99826.78;341747;28;1675;-73
2022/04/27 00:26:00;;;;;;;34.35;21.45;;;;;;;20.09;41.41;99830.69;342766;28;2181;-72
2022/04/27 00:26:14;;;;;;;34.22;21.08;;;;;;;20.15;41.25;99832.91;342045;28;1529;-75
2022/04/27 00:26:26;;;;;;;34.20;21.17;;;;;;;20.16;41.32;99831.94;341504;28;1182;-75
2022/04/27 00:26:38;;;;;;;35.47;21.70;;;;;;;20.18;41.12;99832.69;342251;28;1183;-75
2022/04/27 00:26:51;;;;;;;35.22;21.55;;;;;;;20.21;41.11;99829.84;340833;28;1273;-75
2022/04/27 00:27:06;;;;;;;34.50;21.45;;;;;;;20.25;41.05;99828.69;340900;28;1950;-75
2022/04/27 00:27:18;;;;;;;33.47;21.13;;;;;;;20.30;41.04;99841.53;340098;29;2157;-75
2022/04/27 00:27:31;;;;;;;32.88;21.35;;;;;;;20.31;41.02;99830.03;340193;28;1774;-72
2022/04/27 00:27:43;;;;;;;34.38;21.98;;;;;;;20.36;40.93;99838.47;341622;28;1305;-72
2022/04/27 00:27:57;;;;;;;33.47;21.08;;;;;;;20.39;40.97;99834.78;342262;28;1108;-72
2022/04/27 00:28:08;;;;;;;31.92;20.27;;;;;;;20.38;41.11;99838.38;341501;28;1937;-75
2022/04/27 00:28:20;;;;;;;33.38;20.58;;;;;;;20.44;40.93;99832.66;342234;28;1911;-75
2022/04/27 00:28:32;;;;;;;33.38;20.67;;;;;;;20.43;41.07;99836.25;343501;28;1341;-73
2022/04/27 00:28:44;;;;;;;33.15;20.95;;;;;;;20.44;40.79;99830.00;341014;28;1619;-72
2022/04/27 00:28:56;;;;;;;32.83;21.15;;;;;;;20.43;40.90;99838.91;343430;28;1166;-75
2022/04/27 00:29:08;;;;;;;33.95;21.45;;;;;;;20.49;40.83;99836.66;342672;28;1949;-75
2022/04/27 00:29:20;;;;;;;32.60;20.77;;;;;;;20.50;40.72;99832.22;343462;28;1998;-75
2022/04/27 00:29:32;;;;;;;31.00;20.35;;;;;;;20.52;40.66;99835.59;343257;28;1275;-75
2022/04/27 00:29:44;;;;;;;30.38;20.15;;;;;;;20.09;41.36;99833.34;343592;28;1172;-75
2022/04/27 00:29:58;;;;;;;31.63;21.20;;;;;;;19.82;41.93;99829.00;343585;28;1149;-75
2022/04/27 00:30:10;;;;;;;32.53;21.35;;;;;;;19.76;42.17;99829.44;341931;28;2174;-75
2022/04/27 00:30:22;;;;;;;31.63;21.13;;;;;;;19.88;41.85;99825.97;341460;28;1953;-75
2022/04/27 00:30:34;;;;;;;31.05;20.92;;;;;;;19.98;41.71;99828.81;342440;28;1390;-75
2022/04/27 00:30:46;;;;;;;32.40;21.40;;;;;;;19.98;41.68;99833.22;342064;28;1911;-75
2022/04/27 00:30:58;;;;;;;33.83;21.73;;;;;;;20.00;41.68;99828.69;343585;28;1043;-75
2022/04/27 00:31:10;;;;;;;35.10;21.95;;;;;;;20.03;41.53;99836.41;343722;28;1015;-75
2022/04/27 00:31:24;;;;;;;33.97;21.65;;;;;;;20.06;41.53;99833.53;343573;28;1228;-76
2022/04/27 00:31:37;;;;;;;33.60;21.73;;;;;;;20.12;41.58;99833.09;343464;28;1296;-75
2022/04/27 00:31:49;;;;;;;32.55;21.13;;;;;;;20.21;41.15;99831.66;343975;28;1890;-73
2022/04/27 00:32:01;;;;;;;32.47;21.08;;;;;;;20.26;41.09;99827.75;344946;28;1065;-72
2022/04/27 00:32:13;;;;;;;33.83;21.40;;;;;;;20.28;40.91;99832.88;344051;28;1784;-72
2022/04/27 00:32:25;;;;;;;36.13;21.77;;;;;;;20.32;40.92;99835.22;342574;28;1841;-75
2022/04/27 00:32:37;;;;;;;36.53;22.02;;;;;;;20.39;40.92;99835.63;342743;28;1565;-75
2022/04/27 00:32:49;;;;;;;34.10;21.75;;;;;;;20.43;40.86;99836.25;343350;28;1103;-75
2022/04/27 00:33:01;;;;;;;36.97;22.33;;;;;;;20.46;40.77;99839.50;342668;28;1723;-75
2022/04/27 00:33:13;;;;;;;37.85;22.48;;;;;;;20.49;40.60;99833.19;342464;28;1840;-74
2022/04/27 00:33:25;;;;;;;36.53;21.85;;;;;;;20.54;40.57;99834.56;342494;28;1100;-74
2022/04/27 00:33:37;;;;;;;33.38;20.98;;;;;;;20.59;40.58;99831.59;343342;28;1112;-74
2022/04/27 00:33:49;;;;;;;34.95;20.98;;;;;;;20.61;40.61;99834.97;343416;28;1023;-74
2022/04/27 00:34:02;;;;;;;35.30;21.75;;;;;;;20.66;40.53;99838.13;343269;28;1040;-74
2022/04/27 00:34:14;;;;;;;34.33;22.05;;;;;;;20.67;40.50;99837.19;342840;28;1785;-74
2022/04/27 00:34:26;;;;;;;32.08;21.25;;;;;;;20.68;40.38;99832.72;343027;28;1898;-74
2022/04/27 00:34:38;;;;;;;31.35;20.30;;;;;;;20.71;40.50;99837.81;345018;28;1085;-74
2022/04/27 00:34:50;;;;;;;31.23;20.52;;;;;;;20.71;40.47;99829.88;344850;28;1284;-74
2022/04/27 00:35:03;;;;;;;31.88;20.85;;;;;;;20.71;40.21;99832.53;344192;28;1831;-76
2022/04/27 00:35:15;;;;;;;32.25;21.20;;;;;;;20.71;40.37;99838.66;344428;28;1871;-74
2022/04/27 00:35:27;;;;;;;32.85;21.42;;;;;;;20.73;40.41;99836.75;344269;28;1186;-75
2022/04/27 00:35:39;;;;;;;33.25;21.38;;;;;;;20.75;40.31;99837.47;343670;28;1165;-75
2022/04/27 00:35:51;;;;;;;32.60;20.77;;;;;;;20.80;40.29;99838.94;343501;28;1299;-75
2022/04/27 00:36:03;;;;;;;31.90;20.55;;;;;;;20.80;40.24;99838.94;343450;28;1307;-75
2022/04/27 00:36:15;;;;;;;31.63;20.63;;;;;;;20.79;40.22;99837.25;344656;28;1617;-75
2022/04/27 00:36:28;;;;;;;32.72;21.17;;;;;;;20.84;40.27;99840.41;344189;28;2178;-75
2022/04/27 00:36:40;;;;;;;32.45;21.45;;;;;;;20.88;40.29;99837.41;345034;28;1183;-72
2022/04/27 00:36:52;;;;;;;32.80;21.13;;;;;;;20.91;40.14;99834.56;344666;28;1015;-72
2022/04/27 00:37:04;;;;;;;32.75;20.92;;;;;;;20.90;40.23;99834.66;343346;28;3355;-72
2022/04/27 00:37:18;;;;;;;32.15;20.80;;;;;;;20.70;40.46;99844.03;344232;28;2840;-72
2022/04/27 00:37:30;;;;;;;31.90;20.55;;;;;;;20.50;40.93;99827.81;344472;28;1465;-72
2022/04/27 00:37:42;;;;;;;32.00;20.90;;;;;;;20.28;41.21;99838.16;344748;28;2894;-72
2022/04/27 00:37:57;;;;;;;33.13;21.65;;;;;;;20.40;41.01;99836.47;344772;28;1007;-75
2022/04/27 00:38:09;;;;;;;32.75;21.40;;;;;;;20.42;40.92;99835.41;344009;28;1935;-75
2022/04/27 00:38:20;;;;;;;32.85;21.60;;;;;;;20.48;40.81;99839.41;344385;28;1838;-75
2022/04/27 00:38:32;;;;;;;33.03;21.42;;;;;;;20.54;40.81;99846.88;344339;28;1141;-75
2022/04/27 00:38:44;;;;;;;32.55;21.20;;;;;;;20.61;40.71;99845.53;344201;28;1674;-75
2022/04/27 00:38:58;;;;;;;33.90;21.10;;;;;;;20.65;40.50;99836.44;344823;28;1043;-75
2022/04/27 00:39:11;;;;;;;35.05;21.38;;;;;;;20.66;40.53;99842.56;344182;28;4318;-75
2022/04/27 00:39:23;;;;;;;34.83;21.45;;;;;;;20.67;40.51;99836.34;343180;28;2203;-73
2022/04/27 00:39:35;;;;;;;34.50;21.50;;;;;;;20.70;40.50;99834.31;343621;28;1111;-73
2022/04/27 00:39:47;;;;;;;34.47;21.85;;;;;;;20.75;40.38;99836.63;343603;28;1907;-73
2022/04/27 00:39:59;;;;;;;33.72;21.52;;;;;;;20.81;40.49;99838.00;343826;28;1184;-74
2022/04/27 00:40:12;;;;;;;34.00;21.13;;;;;;;20.84;40.15;99837.75;341645;28;1952;-78
2022/04/27 00:40:29;;;;;;;34.30;20.85;;;;;;;20.90;40.04;99840.78;343592;28;1276;-75
2022/04/27 00:40:41;;;;;;;33.55;20.75;;;;;;;20.91;40.10;99836.38;344793;28;1028;-74
2022/04/27 00:40:53;;;;;;;31.80;20.40;;;;;;;20.92;40.22;99838.03;344935;28;1015;-75
2022/04/27 00:41:05;;;;;;;30.35;20.25;;;;;;;20.94;39.98;99846.69;342722;28;1892;-77
2022/04/27 00:41:18;;;;;;;31.02;20.42;;;;;;;20.53;40.51;99842.56;343410;28;1532;-75
2022/04/27 00:41:30;;;;;;;31.73;20.80;;;;;;;20.69;40.49;99845.84;341962;28;1366;-76
2022/04/27 00:41:58;;;;;;;30.75;20.60;;;;;;;20.74;40.60;99835.78;342418;28;1190;-74
2022/04/27 00:42:18;;;;;;;30.90;20.23;;;;;;;20.82;40.11;99837.88;342787;28;1902;-75
2022/04/27 00:42:30;;;;;;;30.70;20.65;;;;;;;20.89;40.10;99844.41;343092;28;1425;-75
2022/04/27 00:42:42;;;;;;;32.42;20.42;;;;;;;20.86;40.16;99843.78;340727;29;1030;-75
2022/04/27 00:42:54;;;;;;;34.10;20.83;;;;;;;20.83;40.08;99841.38;341737;28;2048;-75
2022/04/27 00:43:06;;;;;;;33.20;20.80;;;;;;;20.80;40.09;99833.66;341866;28;2484;-75
2022/04/27 00:43:41;;;;;;;31.55;20.35;;;;;;;20.87;39.97;99840.19;340849;29;1165;-76
2022/04/27 00:43:54;;;;;;;30.65;19.58;;;;;;;20.89;39.96;99840.94;340755;29;1986;-79
2022/04/27 00:44:06;;;;;;;30.50;19.88;;;;;;;20.84;40.12;99837.75;340820;28;1922;-78
2022/04/27 00:44:18;;;;;;;31.52;20.65;;;;;;;20.90;39.95;99845.25;341774;28;1652;-78
2022/04/27 00:44:32;;;;;;;31.63;20.33;;;;;;;20.94;39.80;99838.78;343275;28;1128;-75
2022/04/27 00:44:45;;;;;;;32.05;20.33;;;;;;;20.98;39.79;99844.69;342791;28;1103;-74
2022/04/27 00:44:57;;;;;;;32.53;20.90;;;;;;;21.00;39.63;99840.97;343479;28;1059;-74
2022/04/27 00:45:09;;;;;;;32.50;20.75;;;;;;;21.00;39.82;99840.97;343409;28;1781;-75
2022/04/27 00:45:22;;;;;;;32.58;21.05;;;;;;;21.00;39.56;99840.97;343986;28;1886;-75
2022/04/27 00:45:34;;;;;;;32.55;20.80;;;;;;;21.00;39.75;99838.31;344005;28;1332;-75
2022/04/27 00:45:46;;;;;;;30.55;20.05;;;;;;;21.00;39.56;99846.25;343158;28;1955;-75
2022/04/27 00:45:58;;;;;;;30.15;20.17;;;;;;;20.98;39.65;99837.59;343556;28;1566;-75
2022/04/27 00:46:11;;;;;;;30.80;20.23;;;;;;;20.97;39.61;99851.78;343520;28;1937;-75
2022/04/27 00:46:23;;;;;;;31.27;20.02;;;;;;;21.01;39.78;99842.66;342421;28;1954;-75
2022/04/27 00:46:36;;;;;;;31.20;20.15;;;;;;;20.36;40.80;99843.75;342050;28;1180;-75
2022/04/27 00:46:48;;;;;;;32.05;20.73;;;;;;;19.90;41.92;99845.16;340720;29;1117;-75
2022/04/27 00:47:03;;;;;;;31.13;20.15;;;;;;;19.99;41.76;99837.56;340899;29;1105;-75
2022/04/27 00:47:16;;;;;;;33.17;20.45;;;;;;;20.11;41.60;99842.81;341008;28;1811;-75
2022/04/27 00:47:30;;;;;;;34.05;20.92;;;;;;;20.12;41.55;99841.91;341242;28;1223;-75
2022/04/27 00:47:42;;;;;;;32.83;20.92;;;;;;;20.21;41.32;99843.03;340640;29;1089;-75
2022/04/27 00:47:54;;;;;;;32.28;20.48;;;;;;;20.34;41.00;99843.88;340994;29;1242;-75
2022/04/27 00:48:07;;;;;;;29.95;19.38;;;;;;;20.41;41.08;99844.28;340631;28;1980;-77
2022/04/27 00:48:19;;;;;;;30.33;19.77;;;;;;;20.48;40.88;99847.31;341650;28;1658;-76
2022/04/27 00:48:31;;;;;;;31.67;20.77;;;;;;;20.58;40.94;99840.44;341144;28;2003;-75
2022/04/27 00:48:43;;;;;;;33.17;21.13;;;;;;;20.63;40.72;99843.63;342375;28;1191;-76
2022/04/27 00:48:55;;;;;;;31.65;20.75;;;;;;;20.60;40.44;99838.56;342487;28;1793;-74
2022/04/27 00:49:07;;;;;;;31.40;20.67;;;;;;;20.66;40.50;99840.75;342979;28;1775;-76
2022/04/27 00:49:19;;;;;;;33.90;20.60;;;;;;;20.66;40.77;99838.13;343148;28;1913;-75
2022/04/27 00:49:31;;;;;;;33.58;20.15;;;;;;;20.68;40.39;99840.66;343323;28;1048;-75
2022/04/27 00:49:46;;;;;;;32.35;20.33;;;;;;;20.68;40.49;99846.78;342824;28;1623;-76
2022/04/27 00:49:58;;;;;;;30.67;19.88;;;;;;;20.73;40.33;99839.38;342014;28;1216;-75
2022/04/27 00:50:10;;;;;;;29.73;19.38;;;;;;;20.81;40.30;99840.63;342207;28;1609;-75
2022/04/27 00:50:23;;;;;;;30.08;19.42;;;;;;;20.85;40.27;99842.09;342566;28;1766;-75
2022/04/27 00:50:35;;;;;;;29.75;19.48;;;;;;;20.85;40.43;99836.81;343982;28;1231;-74
2022/04/27 00:50:47;;;;;;;30.40;19.80;;;;;;;20.87;40.11;99845.47;344888;28;1087;-73
2022/04/27 00:51:01;;;;;;;29.73;19.48;;;;;;;20.89;40.23;99838.28;344681;28;1104;-73
2022/04/27 00:51:21;;;;;;;30.38;19.58;;;;;;;20.91;40.09;99836.38;344386;28;1687;-73
2022/04/27 00:51:33;;;;;;;34.10;20.55;;;;;;;20.92;40.03;99840.69;343664;28;1862;-75
2022/04/27 00:51:46;;;;;;;33.05;20.60;;;;;;;20.92;40.02;99845.97;343511;28;1188;-75
2022/04/27 00:51:58;;;;;;;31.67;20.33;;;;;;;20.90;39.94;99845.25;343481;28;1255;-75
2022/04/27 00:52:12;;;;;;;32.35;20.30;;;;;;;20.88;40.06;99841.88;343282;28;1962;-73
2022/04/27 00:52:24;;;;;;;32.47;20.67;;;;;;;20.88;39.94;99852.44;344093;28;1860;-73
2022/04/27 00:52:38;;;;;;;31.92;20.80;;;;;;;20.84;39.96;99840.41;343281;28;1215;-73
2022/04/27 00:52:51;;;;;;;33.42;21.10;;;;;;;20.80;39.97;99844.22;343415;28;1203;-73
2022/04/27 00:53:04;;;;;;;32.92;21.00;;;;;;;20.61;40.03;99845.53;343946;28;2018;-72
2022/04/27 00:53:16;;;;;;;33.58;21.25;;;;;;;20.71;40.22;99841.28;343177;28;2107;-74
2022/04/27 00:53:29;;;;;;;31.98;21.13;;;;;;;20.73;40.01;99844.66;342551;28;1883;-75
2022/04/27 00:53:41;;;;;;;31.80;20.65;;;;;;;20.77;40.04;99842.66;341962;28;1291;-75
2022/04/27 00:53:53;;;;;;;29.30;19.38;;;;;;;20.82;40.33;99842.31;340846;29;1317;-74
2022/04/27 00:54:05;;;;;;;28.33;19.27;;;;;;;20.81;40.32;99840.63;340397;28;2281;-74
2022/04/27 00:54:22;;;;;;;28.80;19.25;;;;;;;20.85;40.21;99842.09;341051;28;1390;-73
2022/04/27 00:54:35;;;;;;;28.20;18.58;;;;;;;20.92;40.04;99849.44;341704;28;1347;-73
2022/04/27 00:54:51;;;;;;;28.63;19.30;;;;;;;20.91;40.02;99847.78;341253;28;1902;-72
2022/04/27 00:55:03;;;;;;;29.10;19.75;;;;;;;20.91;39.92;99837.22;342156;28;1169;-73
2022/04/27 00:55:15;;;;;;;28.83;18.90;;;;;;;20.94;39.96;99838.78;341576;28;2348;-73
2022/04/27 00:55:29;;;;;;;29.17;18.95;;;;;;;20.96;40.00;99842.16;341632;28;2177;-73
2022/04/27 00:55:41;;;;;;;28.35;18.95;;;;;;;20.95;39.86;99845.75;342056;28;1813;-74
2022/04/27 00:55:53;;;;;;;27.48;19.08;;;;;;;20.91;40.20;99849.59;343486;28;1104;-74
2022/04/27 00:56:06;;;;;;;28.35;19.38;;;;;;;20.92;40.03;99838.03;343591;28;2077;-76
2022/04/27 00:56:21;;;;;;;28.50;19.55;;;;;;;20.97;39.91;99843.84;344060;28;2009;-75
2022/04/27 00:56:33;;;;;;;27.55;19.33;;;;;;;20.97;39.83;99843.84;343151;28;1575;-73
2022/04/27 00:56:45;;;;;;;28.48;19.58;;;;;;;20.99;39.76;99844.59;343359;28;1026;-73
2022/04/27 00:56:57;;;;;;;30.67;20.38;;;;;;;20.82;40.15;99844.94;342106;28;1098;-72
2022/04/27 00:57:12;;;;;;;31.02;20.55;;;;;;;20.70;40.25;99844.88;341048;28;5180;-72
2022/04/27 00:57:26;;;;;;;28.90;19.65;;;;;;;20.79;40.22;99843.38;342238;28;3167;-72
2022/04/27 00:57:42;;;;;;;28.02;19.25;;;;;;;20.82;40.12;99842.31;344417;28;2328;-73
2022/04/27 00:57:55;;;;;;;30.20;19.67;;;;;;;20.87;39.87;99840.19;343399;28;2880;-73
2022/04/27 00:58:07;;;;;;;30.75;19.58;;;;;;;20.88;39.97;99847.16;343462;28;1135;-73
2022/04/27 00:58:21;;;;;;;29.58;19.25;;;;;;;20.91;39.72;99844.31;343502;28;1058;-72
2022/04/27 00:58:53;;;;;;;32.03;18.90;;;;;;;20.99;39.90;99849.00;342029;28;1394;-75
2022/04/27 00:59:05;;;;;;;27.83;18.45;;;;;;;21.00;39.75;99846.25;341860;28;1015;-75
2022/04/27 00:59:17;;;;;;;28.17;19.60;;;;;;;21.04;39.59;99847.72;343848;28;3035;-74
2022/04/27 00:59:29;;;;;;;29.08;19.85;;;;;;;21.06;39.86;99843.16;343105;28;1230;-75
2022/04/27 00:59:41;;;;;;;29.10;19.52;;;;;;;21.10;39.55;99847.25;342286;28;1118;-72
2022/04/27 00:59:54;;;;;;;30.30;19.52;;;;;;;21.13;39.48;99847.06;342480;28;1161;-72
2022/04/27 01:00:10;;;;;;;31.38;19.83;;;;;;;21.14;39.64;99843.44;343423;28;1330;-72